Time;durP1;ratioP1;P1;durP2;ratioP2;P2;SDS_P1;SDS_P2;PMS_P1;PMS_P2;Temp;Humidity;BMP_temperature;BMP_pressure;BME280_temperature;BME280_humidity;BME280_pressure;Samples;Min_cycle;Max_cycle;Signal;HPM_P1;HPM_P2
2024/02/29 00:00:15;;;;;;;9.65;1.55;;;;;;;;;;5034880;28;20048;-92
2024/02/29 00:02:40;;;;;;;8.10;1.60;;;;;;;;;;5034539;28;20017;-94
2024/02/29 00:05:06;;;;;;;12.35;1.73;;;;;;;;;;5034640;28;20110;-93
2024/02/29 00:07:31;;;;;;;9.77;1.80;;;;;;;;;;5035049;28;20514;-93
2024/02/29 00:09:57;;;;;;;7.43;1.50;;;;;;;;;;5052556;28;20413;-93
2024/02/29 00:12:22;;;;;;;6.53;2.10;;;;;;;;;;5034624;28;20692;-94
2024/02/29 00:14:47;;;;;;;9.25;1.73;;;;;;;;;;5034543;28;20017;-93
2024/02/29 00:17:13;;;;;;;6.03;1.30;;;;;;;;;;5034390;28;20021;-93
2024/02/29 00:19:38;;;;;;;3.20;1.03;;;;;;;;;;5034641;28;20071;-93
2024/02/29 00:22:04;;;;;;;9.02;1.50;;;;;;;;;;5034738;28;20254;-93
2024/02/29 00:24:29;;;;;;;8.55;1.95;;;;;;;;;;5034380;28;20032;-94
2024/02/29 00:26:54;;;;;;;4.18;1.10;;;;;;;;;;5034617;28;20032;-94
2024/02/29 00:29:19;;;;;;;9.65;1.15;;;;;;;;;;5034551;28;20024;-94
2024/02/29 00:31:45;;;;;;;7.85;1.60;;;;;;;;;;5034675;28;20043;-93
2024/02/29 00:34:13;;;;;;;4.50;1.02;;;;;;;;;;5052368;28;20024;-94
2024/02/29 00:36:39;;;;;;;4.10;1.08;;;;;;;;;;5034363;28;20017;-94
2024/02/29 00:39:04;;;;;;;6.55;1.13;;;;;;;;;;5052256;28;20032;-93
2024/02/29 00:41:30;;;;;;;8.32;1.15;;;;;;;;;;5037187;28;20024;-93
2024/02/29 00:43:55;;;;;;;3.80;0.80;;;;;;;;;;5038491;28;20017;-94
2024/02/29 00:46:20;;;;;;;7.10;0.90;;;;;;;;;;5056347;28;20265;-94
2024/02/29 00:48:46;;;;;;;10.60;1.25;;;;;;;;;;5038371;28;20262;-93
2024/02/29 00:51:11;;;;;;;6.50;1.15;;;;;;;;;;5056310;28;20024;-93
2024/02/29 00:53:36;;;;;;;8.60;1.55;;;;;;;;;;5056246;28;20052;-93
2024/02/29 00:56:01;;;;;;;6.72;1.27;;;;;;;;;;5038138;28;20025;-93
2024/02/29 00:58:27;;;;;;;8.32;1.80;;;;;;;;;;5038001;28;20017;-93
2024/02/29 01:00:52;;;;;;;9.60;1.15;;;;;;;;;;5056001;28;20419;-94
2024/02/29 01:03:17;;;;;;;5.32;0.90;;;;;;;;;;5056128;28;20017;-93
2024/02/29 01:05:43;;;;;;;8.60;1.40;;;;;;;;;;5055765;28;20021;-93
2024/02/29 01:08:08;;;;;;;3.57;1.30;;;;;;;;;;5055880;28;20250;-94
2024/02/29 01:10:33;;;;;;;10.33;1.10;;;;;;;;;;5037808;28;20308;-93
2024/02/29 01:12:58;;;;;;;8.33;1.87;;;;;;;;;;5055584;28;20265;-93
2024/02/29 01:15:24;;;;;;;9.57;1.10;;;;;;;;;;5037939;28;20254;-92
2024/02/29 01:17:50;;;;;;;13.30;1.52;;;;;;;;;;5055708;28;20100;-93
2024/02/29 01:20:16;;;;;;;19.38;2.95;;;;;;;;;;5055386;28;20421;-93
2024/02/29 01:22:41;;;;;;;8.30;1.38;;;;;;;;;;5055436;28;20529;-92
2024/02/29 01:25:06;;;;;;;16.17;1.73;;;;;;;;;;5037589;28;20075;-93
2024/02/29 01:27:32;;;;;;;12.88;2.63;;;;;;;;;;5055352;28;20250;-92
2024/02/29 01:29:57;;;;;;;7.63;1.20;;;;;;;;;;5055391;28;20360;-93
2024/02/29 01:32:23;;;;;;;8.73;1.77;;;;;;;;;;5037567;28;20017;-93
2024/02/29 01:34:48;;;;;;;10.50;1.57;;;;;;;;;;5037547;28;20352;-92
2024/02/29 01:37:13;;;;;;;15.87;1.93;;;;;;;;;;5055095;28;20337;-93
2024/02/29 01:39:38;;;;;;;9.60;1.30;;;;;;;;;;5037451;28;20357;-92
2024/02/29 01:42:04;;;;;;;8.85;1.15;;;;;;;;;;5037432;28;20023;-95
2024/02/29 01:44:29;;;;;;;11.48;1.10;;;;;;;;;;5054873;28;20100;-93
2024/02/29 01:46:54;;;;;;;14.27;1.70;;;;;;;;;;5055004;28;20025;-93
2024/02/29 01:49:21;;;;;;;8.13;1.80;;;;;;;;;;5055073;28;20041;-92
2024/02/29 01:51:47;;;;;;;11.38;1.83;;;;;;;;;;5054645;28;20113;-92
2024/02/29 01:54:12;;;;;;;10.45;1.65;;;;;;;;;;5036887;28;20024;-93
2024/02/29 01:56:38;;;;;;;10.32;1.60;;;;;;;;;;5036935;28;20021;-93
2024/02/29 01:59:04;;;;;;;10.43;1.40;;;;;;;;;;5054845;28;20017;-92
2024/02/29 02:01:29;;;;;;;7.43;1.48;;;;;;;;;;5054649;28;20021;-93
2024/02/29 02:03:55;;;;;;;7.60;1.45;;;;;;;;;;5035971;28;20032;-92
2024/02/29 02:06:20;;;;;;;12.88;1.75;;;;;;;;;;5035994;28;20028;-93
2024/02/29 02:08:45;;;;;;;6.05;1.10;;;;;;;;;;5036960;28;20032;-94
2024/02/29 02:11:10;;;;;;;12.93;2.35;;;;;;;;;;5036854;28;20024;-93
2024/02/29 02:13:36;;;;;;;5.88;1.20;;;;;;;;;;5036588;28;20048;-93
2024/02/29 02:16:02;;;;;;;8.10;1.23;;;;;;;;;;5036439;28;20017;-93
2024/02/29 02:18:27;;;;;;;13.88;1.65;;;;;;;;;;5036736;28;20025;-92
2024/02/29 02:20:54;;;;;;;6.28;1.20;;;;;;;;;;5036867;28;20067;-93
2024/02/29 02:23:19;;;;;;;6.47;1.13;;;;;;;;;;5036336;28;20024;-94
2024/02/29 02:25:45;;;;;;;5.72;1.23;;;;;;;;;;5054696;28;20029;-93
2024/02/29 02:28:11;;;;;;;7.32;1.02;;;;;;;;;;5036578;28;20021;-92
2024/02/29 02:30:37;;;;;;;9.43;2.03;;;;;;;;;;5036578;28;20116;-92
2024/02/29 02:33:02;;;;;;;7.47;1.58;;;;;;;;;;5054163;28;20542;-93
2024/02/29 02:35:27;;;;;;;6.40;1.50;;;;;;;;;;5054043;28;20506;-92
2024/02/29 02:37:52;;;;;;;9.98;1.23;;;;;;;;;;5054155;28;20708;-94
2024/02/29 02:40:18;;;;;;;8.03;1.57;;;;;;;;;;5036368;28;20043;-92
2024/02/29 02:42:43;;;;;;;8.82;1.77;;;;;;;;;;5054224;28;20647;-92
2024/02/29 02:45:08;;;;;;;5.63;1.37;;;;;;;;;;5035899;28;20028;-92
2024/02/29 02:47:34;;;;;;;9.30;1.20;;;;;;;;;;5036373;28;20265;-93
2024/02/29 02:49:59;;;;;;;9.93;1.10;;;;;;;;;;5054039;28;20028;-93
2024/02/29 02:52:24;;;;;;;7.57;1.17;;;;;;;;;;5036065;28;20683;-92
2024/02/29 02:54:49;;;;;;;4.80;1.08;;;;;;;;;;5035885;28;20028;-93
2024/02/29 02:57:14;;;;;;;9.17;1.57;;;;;;;;;;5053828;28;20021;-93
2024/02/29 02:59:40;;;;;;;7.10;1.33;;;;;;;;;;5053963;28;20316;-93
2024/02/29 03:02:05;;;;;;;13.93;1.30;;;;;;;;;;5036092;28;20315;-94
2024/02/29 03:04:30;;;;;;;16.23;2.00;;;;;;;;;;5052530;28;20099;-94
2024/02/29 03:06:55;;;;;;;7.07;1.77;;;;;;;;;;5035482;28;20029;-93
2024/02/29 03:09:21;;;;;;;11.87;1.37;;;;;;;;;;5035769;28;20303;-93
2024/02/29 03:11:46;;;;;;;9.77;1.85;;;;;;;;;;5036282;28;20549;-94
2024/02/29 03:14:11;;;;;;;19.02;1.77;;;;;;;;;;5036853;28;20055;-95
2024/02/29 03:16:37;;;;;;;13.05;1.52;;;;;;;;;;5037508;28;20565;-94
2024/02/29 03:19:04;;;;;;;5.07;1.15;;;;;;;;;;5036387;28;20427;-94
2024/02/29 03:21:30;;;;;;;9.95;1.65;;;;;;;;;;5035205;28;20020;-93
2024/02/29 03:23:55;;;;;;;11.18;1.58;;;;;;;;;;5053409;28;20028;-94
2024/02/29 03:26:20;;;;;;;9.60;1.37;;;;;;;;;;5035344;28;20036;-93
2024/02/29 03:28:45;;;;;;;4.70;1.20;;;;;;;;;;5035778;28;20250;-93
2024/02/29 03:31:11;;;;;;;13.00;2.80;;;;;;;;;;5035220;28;20021;-93
2024/02/29 03:33:37;;;;;;;11.98;1.92;;;;;;;;;;5053236;28;20246;-93
2024/02/29 03:36:02;;;;;;;10.15;1.52;;;;;;;;;;5035451;28;20083;-94
2024/02/29 03:38:27;;;;;;;12.23;1.40;;;;;;;;;;5035678;28;20021;-93
2024/02/29 03:40:53;;;;;;;10.63;1.63;;;;;;;;;;5035517;28;20058;-94
2024/02/29 03:43:18;;;;;;;10.55;1.55;;;;;;;;;;5035747;28;20021;-95
2024/02/29 03:45:43;;;;;;;7.60;2.20;;;;;;;;;;5035165;28;20051;-94
2024/02/29 03:48:08;;;;;;;11.63;1.67;;;;;;;;;;5035387;28;20368;-94
2024/02/29 03:50:33;;;;;;;16.83;1.87;;;;;;;;;;5035325;28;20270;-93
2024/02/29 03:52:59;;;;;;;8.45;1.40;;;;;;;;;;5035148;28;20257;-93
2024/02/29 03:55:24;;;;;;;13.80;1.88;;;;;;;;;;5035086;28;20071;-93
2024/02/29 03:57:49;;;;;;;10.95;1.77;;;;;;;;;;5034844;28;20020;-93
2024/02/29 04:00:16;;;;;;;10.30;1.60;;;;;;;;;;5035133;28;20021;-94
2024/02/29 04:02:41;;;;;;;11.75;1.73;;;;;;;;;;5034891;28;20471;-94
2024/02/29 04:05:07;;;;;;;13.17;1.67;;;;;;;;;;5035189;28;20036;-93
2024/02/29 04:07:34;;;;;;;17.38;3.95;;;;;;;;;;5052783;28;20345;-94
2024/02/29 04:09:59;;;;;;;10.70;1.65;;;;;;;;;;5034953;28;20071;-93
2024/02/29 04:12:24;;;;;;;12.17;2.07;;;;;;;;;;5035120;28;20017;-94
2024/02/29 04:14:50;;;;;;;12.43;1.70;;;;;;;;;;5034705;28;20308;-94
2024/02/29 04:17:15;;;;;;;19.55;3.75;;;;;;;;;;5034679;28;20273;-94
2024/02/29 04:19:41;;;;;;;11.13;1.17;;;;;;;;;;5052605;28;20302;-94
2024/02/29 04:22:06;;;;;;;17.42;2.70;;;;;;;;;;5034515;28;20251;-94
2024/02/29 04:24:32;;;;;;;11.48;2.10;;;;;;;;;;5034554;28;20497;-93
2024/02/29 04:26:59;;;;;;;10.90;1.45;;;;;;;;;;5035116;28;20052;-94
2024/02/29 04:29:24;;;;;;;9.27;1.90;;;;;;;;;;5034490;28;20044;-93
2024/02/29 04:31:49;;;;;;;15.50;1.73;;;;;;;;;;5034740;28;20308;-93
2024/02/29 04:34:15;;;;;;;10.52;1.83;;;;;;;;;;5034405;28;20262;-92
2024/02/29 04:36:40;;;;;;;13.10;2.15;;;;;;;;;;5034361;28;20013;-93
2024/02/29 04:39:05;;;;;;;10.57;1.47;;;;;;;;;;5034078;28;20028;-93
2024/02/29 04:41:30;;;;;;;10.27;1.50;;;;;;;;;;5052274;28;20254;-92
2024/02/29 04:43:55;;;;;;;12.40;1.90;;;;;;;;;;5052316;28;20093;-93
2024/02/29 04:46:21;;;;;;;10.13;1.97;;;;;;;;;;5034557;28;20373;-94
2024/02/29 04:48:46;;;;;;;13.63;1.73;;;;;;;;;;5034537;28;20289;-94
2024/02/29 04:51:11;;;;;;;9.93;1.37;;;;;;;;;;5034057;28;20021;-93
2024/02/29 04:53:36;;;;;;;4.97;1.40;;;;;;;;;;5034415;28;20250;-93
2024/02/29 04:56:03;;;;;;;8.87;1.33;;;;;;;;;;5034109;28;20269;-94
2024/02/29 04:58:29;;;;;;;9.85;1.42;;;;;;;;;;5034276;28;20340;-93
2024/02/29 05:00:55;;;;;;;8.95;1.45;;;;;;;;;;5034224;28;20051;-93
2024/02/29 05:03:21;;;;;;;7.28;1.58;;;;;;;;;;5034448;28;20028;-92
2024/02/29 05:05:46;;;;;;;8.88;1.23;;;;;;;;;;5051746;28;20025;-93
2024/02/29 05:08:12;;;;;;;4.97;0.70;;;;;;;;;;5051980;28;20017;-92
2024/02/29 05:10:38;;;;;;;4.88;0.60;;;;;;;;;;5034166;28;20345;-93
2024/02/29 05:13:03;;;;;;;2.33;0.60;;;;;;;;;;5051876;28;20105;-93
2024/02/29 05:15:29;;;;;;;4.63;0.50;;;;;;;;;;5034173;28;20025;-93
2024/02/29 05:17:54;;;;;;;3.55;0.50;;;;;;;;;;5034335;28;20449;-94
2024/02/29 05:20:19;;;;;;;2.33;0.40;;;;;;;;;;5034206;28;20051;-94
2024/02/29 05:22:45;;;;;;;3.33;0.80;;;;;;;;;;5034256;28;20116;-92
2024/02/29 05:25:10;;;;;;;4.88;0.40;;;;;;;;;;5034186;28;20365;-93
2024/02/29 05:27:36;;;;;;;1.92;0.30;;;;;;;;;;5053016;28;20471;-94
2024/02/29 05:30:01;;;;;;;2.90;0.30;;;;;;;;;;5038008;28;20064;-93
2024/02/29 05:32:27;;;;;;;2.35;0.35;;;;;;;;;;5037644;28;20025;-93
2024/02/29 05:34:53;;;;;;;1.35;0.50;;;;;;;;;;5037705;28;20013;-92
2024/02/29 05:37:18;;;;;;;3.57;0.77;;;;;;;;;;5055461;28;20025;-93
2024/02/29 05:39:43;;;;;;;1.65;0.40;;;;;;;;;;5037567;28;20266;-93
2024/02/29 05:42:09;;;;;;;3.10;0.40;;;;;;;;;;5037478;28;20017;-93
2024/02/29 05:44:34;;;;;;;1.27;0.50;;;;;;;;;;5037366;28;20286;-94
2024/02/29 05:46:59;;;;;;;1.20;0.40;;;;;;;;;;5037461;28;20024;-93
2024/02/29 05:49:25;;;;;;;1.60;0.50;;;;;;;;;;5037183;28;20471;-93
2024/02/29 05:51:50;;;;;;;0.47;0.30;;;;;;;;;;5054946;28;20250;-94
2024/02/29 05:54:15;;;;;;;2.30;0.55;;;;;;;;;;5037305;28;20258;-93
2024/02/29 05:56:40;;;;;;;1.73;0.50;;;;;;;;;;5037343;28;20037;-93
2024/02/29 05:59:06;;;;;;;2.65;0.57;;;;;;;;;;5037339;28;20341;-94
2024/02/29 06:01:31;;;;;;;2.42;0.50;;;;;;;;;;5037045;28;20017;-93
2024/02/29 06:03:56;;;;;;;5.93;0.50;;;;;;;;;;5037413;28;20017;-93
2024/02/29 06:06:21;;;;;;;1.37;0.50;;;;;;;;;;5036898;28;20060;-93
2024/02/29 06:08:46;;;;;;;1.50;0.40;;;;;;;;;;5036927;28;20348;-94
2024/02/29 06:11:14;;;;;;;1.60;0.50;;;;;;;;;;5054761;28;20289;-94
2024/02/29 06:13:40;;;;;;;1.33;0.47;;;;;;;;;;5036885;28;20277;-93
2024/02/29 06:16:06;;;;;;;1.02;0.43;;;;;;;;;;5036976;28;20499;-93
2024/02/29 06:18:31;;;;;;;2.10;0.60;;;;;;;;;;5036757;28;20483;-93
2024/02/29 06:20:56;;;;;;;3.55;0.95;;;;;;;;;;5036521;28;20020;-93
2024/02/29 06:23:21;;;;;;;3.08;0.60;;;;;;;;;;5052610;28;20100;-92
2024/02/29 06:25:49;;;;;;;0.97;0.67;;;;;;;;;;5036308;28;20078;-93
2024/02/29 06:28:15;;;;;;;0.77;0.52;;;;;;;;;;5036754;28;20250;-92
2024/02/29 06:30:40;;;;;;;1.00;0.70;;;;;;;;;;5036020;28;20112;-95
2024/02/29 06:33:06;;;;;;;2.35;0.70;;;;;;;;;;5036360;28;20124;-93
2024/02/29 06:35:31;;;;;;;2.00;0.63;;;;;;;;;;5036051;28;20025;-93
2024/02/29 06:37:56;;;;;;;2.70;0.70;;;;;;;;;;5035492;28;20020;-91
2024/02/29 06:40:22;;;;;;;4.63;1.00;;;;;;;;;;5035994;28;20025;-93
2024/02/29 06:42:48;;;;;;;2.63;0.70;;;;;;;;;;5036032;28;20021;-92
2024/02/29 06:45:13;;;;;;;2.70;1.17;;;;;;;;;;5035757;28;20061;-89
2024/02/29 06:47:40;;;;;;;2.42;0.50;;;;;;;;;;5052887;28;20056;-92
2024/02/29 06:50:05;;;;;;;1.90;0.52;;;;;;;;;;5037858;28;20521;-91
2024/02/29 06:52:31;;;;;;;3.50;0.88;;;;;;;;;;5051641;28;20021;-91
2024/02/29 06:54:56;;;;;;;2.47;0.50;;;;;;;;;;5053085;28;20025;-92
2024/02/29 06:57:21;;;;;;;3.13;1.00;;;;;;;;;;5035940;28;20016;-93
2024/02/29 06:59:46;;;;;;;3.10;1.20;;;;;;;;;;5036412;28;20266;-92
2024/02/29 07:02:11;;;;;;;1.37;1.27;;;;;;;;;;5053195;28;20257;-94
2024/02/29 07:04:37;;;;;;;5.40;1.60;;;;;;;;;;5038837;28;20274;-92
2024/02/29 07:07:04;;;;;;;2.70;1.52;;;;;;;;;;5050313;28;20258;-93
2024/02/29 07:09:30;;;;;;;2.53;1.42;;;;;;;;;;5051868;28;20027;-93
2024/02/29 07:11:55;;;;;;;4.28;1.63;;;;;;;;;;5052315;28;20485;-90
2024/02/29 07:14:21;;;;;;;4.17;1.40;;;;;;;;;;5052354;28;20021;-92
2024/02/29 07:16:46;;;;;;;4.63;1.53;;;;;;;;;;5035440;28;20266;-92
2024/02/29 07:19:11;;;;;;;3.45;1.85;;;;;;;;;;5035090;28;20254;-92
2024/02/29 07:21:37;;;;;;;5.88;1.77;;;;;;;;;;5035100;28;20052;-92
2024/02/29 07:24:02;;;;;;;3.70;1.70;;;;;;;;;;5034353;28;20481;-92
2024/02/29 07:26:28;;;;;;;3.90;1.92;;;;;;;;;;5035052;28;20029;-92
2024/02/29 07:28:53;;;;;;;2.92;1.70;;;;;;;;;;5034887;28;20063;-92
2024/02/29 07:31:19;;;;;;;9.47;3.23;;;;;;;;;;5036791;28;20017;-92
2024/02/29 07:33:46;;;;;;;5.47;2.72;;;;;;;;;;5050603;28;20274;-90
2024/02/29 07:36:11;;;;;;;7.50;2.20;;;;;;;;;;5052672;28;20071;-94
2024/02/29 07:38:36;;;;;;;4.30;2.17;;;;;;;;;;5050697;28;20021;-90
2024/02/29 07:41:01;;;;;;;6.90;2.13;;;;;;;;;;5052542;28;20053;-92
2024/02/29 07:43:27;;;;;;;6.43;2.30;;;;;;;;;;5052602;28;20262;-92
2024/02/29 07:45:52;;;;;;;6.70;3.33;;;;;;;;;;5052543;28;20491;-93
2024/02/29 07:48:17;;;;;;;8.80;3.33;;;;;;;;;;5035340;28;20017;-94
2024/02/29 07:50:43;;;;;;;12.43;4.27;;;;;;;;;;5051650;28;20277;-92
2024/02/29 07:53:08;;;;;;;7.80;2.67;;;;;;;;;;5051557;28;20253;-93
2024/02/29 07:55:33;;;;;;;9.60;3.00;;;;;;;;;;5052439;28;20266;-94
2024/02/29 07:58:00;;;;;;;13.70;2.85;;;;;;;;;;5034738;28;20083;-94
2024/02/29 08:00:26;;;;;;;12.98;2.97;;;;;;;;;;5051648;28;20013;-92
2024/02/29 08:02:51;;;;;;;12.35;3.25;;;;;;;;;;5033449;28;20071;-92
2024/02/29 08:05:17;;;;;;;9.60;2.80;;;;;;;;;;5034258;28;20478;-91
2024/02/29 08:07:46;;;;;;;13.43;3.47;;;;;;;;;;5051444;28;20017;-92
2024/02/29 08:10:15;;;;;;;10.95;2.80;;;;;;;;;;5046985;28;20021;-92
2024/02/29 08:12:40;;;;;;;15.73;4.50;;;;;;;;;;5051352;28;20021;-93
2024/02/29 08:15:05;;;;;;;16.70;4.82;;;;;;;;;;5052407;28;20079;-92
2024/02/29 08:17:31;;;;;;;15.90;4.40;;;;;;;;;;5052184;28;20013;-92
2024/02/29 08:19:56;;;;;;;18.25;5.22;;;;;;;;;;5051024;28;20040;-91
2024/02/29 08:22:21;;;;;;;11.75;5.25;;;;;;;;;;5034286;28;20044;-92
2024/02/29 08:24:46;;;;;;;20.50;6.10;;;;;;;;;;5033706;28;20378;-91
2024/02/29 08:27:12;;;;;;;19.17;5.05;;;;;;;;;;5051673;28;20013;-92
2024/02/29 08:29:37;;;;;;;18.48;5.55;;;;;;;;;;5051690;28;20111;-92
2024/02/29 08:32:02;;;;;;;21.20;5.97;;;;;;;;;;5051405;28;20017;-92
2024/02/29 08:34:28;;;;;;;17.92;6.20;;;;;;;;;;5051396;28;20254;-91
2024/02/29 08:36:54;;;;;;;17.58;7.32;;;;;;;;;;5050966;28;20049;-91
2024/02/29 08:39:20;;;;;;;15.52;5.38;;;;;;;;;;5051587;28;20084;-94
2024/02/29 08:41:46;;;;;;;13.27;5.30;;;;;;;;;;5034190;28;20021;-94
2024/02/29 08:44:11;;;;;;;14.32;5.03;;;;;;;;;;5034263;28;20108;-95
2024/02/29 08:46:36;;;;;;;14.88;4.32;;;;;;;;;;5033955;28;20029;-92
2024/02/29 08:49:02;;;;;;;9.45;4.65;;;;;;;;;;5034003;28;20079;-92
2024/02/29 08:51:27;;;;;;;14.75;5.28;;;;;;;;;;5051672;28;20310;-91
2024/02/29 08:53:52;;;;;;;11.43;3.90;;;;;;;;;;5051101;28;20080;-93
2024/02/29 08:56:17;;;;;;;19.38;10.50;;;;;;;;;;5051725;28;20273;-92
2024/02/29 08:58:43;;;;;;;15.73;8.75;;;;;;;;;;5050395;28;20021;-94
2024/02/29 09:01:08;;;;;;;23.63;7.65;;;;;;;;;;5051084;28;20466;-92
2024/02/29 09:03:33;;;;;;;18.67;7.55;;;;;;;;;;5055579;28;20088;-94
2024/02/29 09:05:58;;;;;;;15.70;5.68;;;;;;;;;;5037644;28;20036;-92
2024/02/29 09:08:24;;;;;;;13.68;5.28;;;;;;;;;;5054376;28;20359;-91
2024/02/29 09:10:49;;;;;;;14.70;3.93;;;;;;;;;;5055607;28;20191;-93
2024/02/29 09:13:14;;;;;;;10.73;3.38;;;;;;;;;;5055617;28;20242;-94
2024/02/29 09:15:41;;;;;;;14.93;4.43;;;;;;;;;;5038089;28;20028;-93
2024/02/29 09:18:07;;;;;;;15.60;3.55;;;;;;;;;;5038199;28;20265;-93
2024/02/29 09:20:32;;;;;;;13.27;3.05;;;;;;;;;;5055500;28;20104;-93
2024/02/29 09:22:57;;;;;;;19.20;6.23;;;;;;;;;;5057001;28;20032;-96
2024/02/29 09:25:22;;;;;;;18.67;4.80;;;;;;;;;;5037908;28;20286;-95
2024/02/29 09:27:49;;;;;;;16.70;4.55;;;;;;;;;;5037860;28;20265;-93
2024/02/29 09:30:16;;;;;;;14.10;3.45;;;;;;;;;;5037858;28;20096;-95
2024/02/29 09:32:43;;;;;;;12.73;3.33;;;;;;;;;;5056834;28;20013;-96
2024/02/29 09:35:09;;;;;;;14.23;2.47;;;;;;;;;;5039136;28;20029;-95
2024/02/29 09:37:34;;;;;;;22.02;3.17;;;;;;;;;;5038681;28;20017;-96
2024/02/29 09:39:59;;;;;;;19.23;3.57;;;;;;;;;;5041071;28;20024;-96
2024/02/29 09:42:26;;;;;;;34.00;3.47;;;;;;;;;;5055032;28;20250;-95
2024/02/29 09:44:51;;;;;;;14.02;2.75;;;;;;;;;;5054878;28;20364;-92
2024/02/29 09:47:19;;;;;;;13.82;3.05;;;;;;;;;;5036382;28;20111;-92
2024/02/29 09:49:44;;;;;;;14.38;3.15;;;;;;;;;;5036693;28;20036;-93
2024/02/29 09:52:11;;;;;;;12.73;2.83;;;;;;;;;;5054615;28;20017;-92
2024/02/29 09:54:38;;;;;;;17.70;4.32;;;;;;;;;;5037096;28;20106;-94
2024/02/29 09:57:03;;;;;;;9.93;2.72;;;;;;;;;;5036907;28;20501;-92
2024/02/29 09:59:30;;;;;;;12.75;3.47;;;;;;;;;;5054812;28;20115;-93
2024/02/29 10:01:55;;;;;;;10.25;2.63;;;;;;;;;;5036703;28;20013;-93
2024/02/29 10:04:20;;;;;;;11.13;2.55;;;;;;;;;;5036732;28;20027;-92
2024/02/29 10:06:46;;;;;;;13.93;3.17;;;;;;;;;;5054762;28;20113;-93
2024/02/29 10:09:11;;;;;;;14.90;3.33;;;;;;;;;;5037029;28;20021;-92
2024/02/29 10:11:40;;;;;;;12.77;2.90;;;;;;;;;;5054744;28;20025;-93
2024/02/29 10:14:17;;;;;;;10.00;3.15;;;;;;;;;;5053838;28;20383;-93
2024/02/29 10:16:42;;;;;;;10.60;2.22;;;;;;;;;;5036512;28;20031;-93
2024/02/29 10:19:11;;;;;;;15.07;3.33;;;;;;;;;;5054501;28;20390;-92
2024/02/29 10:21:36;;;;;;;10.65;2.58;;;;;;;;;;5054260;28;20727;-92
2024/02/29 10:24:01;;;;;;;17.13;4.07;;;;;;;;;;5036340;28;20044;-93
2024/02/29 10:26:26;;;;;;;12.33;3.40;;;;;;;;;;5053851;28;20285;-92
2024/02/29 10:29:01;;;;;;;11.48;3.03;;;;;;;;;;5036395;28;20266;-92
2024/02/29 10:31:26;;;;;;;16.98;2.58;;;;;;;;;;5054312;28;20032;-92
2024/02/29 10:33:52;;;;;;;13.00;3.07;;;;;;;;;;5036171;28;20374;-93
2024/02/29 10:36:18;;;;;;;13.47;2.50;;;;;;;;;;5036087;28;20615;-92
2024/02/29 10:38:43;;;;;;;16.25;2.33;;;;;;;;;;5036065;28;20739;-92
2024/02/29 10:41:10;;;;;;;14.48;2.17;;;;;;;;;;5036409;28;20108;-93
2024/02/29 10:43:36;;;;;;;12.10;2.03;;;;;;;;;;5054227;28;20024;-93
2024/02/29 10:46:04;;;;;;;13.57;2.67;;;;;;;;;;5036305;28;20032;-93
2024/02/29 10:48:34;;;;;;;12.32;2.30;;;;;;;;;;5036026;28;20421;-92
2024/02/29 10:51:03;;;;;;;9.32;2.47;;;;;;;;;;5035829;28;20478;-92
2024/02/29 10:53:48;;;;;;;13.07;2.50;;;;;;;;;;5035888;28;20021;-93
2024/02/29 10:56:21;;;;;;;16.90;2.58;;;;;;;;;;5036085;28;20025;-93
2024/02/29 10:58:48;;;;;;;11.48;2.35;;;;;;;;;;5035637;28;20025;-92
2024/02/29 11:01:14;;;;;;;15.02;1.92;;;;;;;;;;5035956;28;20108;-94
2024/02/29 11:03:40;;;;;;;12.75;2.15;;;;;;;;;;5035783;28;20048;-93
2024/02/29 11:06:07;;;;;;;16.30;3.05;;;;;;;;;;5035667;28;20029;-93
2024/02/29 11:08:32;;;;;;;19.85;3.97;;;;;;;;;;5035378;28;20021;-93
2024/02/29 11:10:58;;;;;;;14.30;2.15;;;;;;;;;;5035577;28;20394;-92
2024/02/29 11:13:26;;;;;;;14.02;1.98;;;;;;;;;;5053447;28;20104;-92
2024/02/29 11:15:53;;;;;;;23.85;2.83;;;;;;;;;;5035341;28;20074;-93
2024/02/29 11:18:22;;;;;;;13.95;2.33;;;;;;;;;;5035365;28;20016;-92
2024/02/29 11:20:47;;;;;;;16.20;2.47;;;;;;;;;;5053174;28;20017;-92
2024/02/29 11:23:15;;;;;;;17.30;2.22;;;;;;;;;;5053250;28;20017;-93
2024/02/29 11:25:43;;;;;;;9.35;2.03;;;;;;;;;;5034426;28;20478;-93
2024/02/29 11:28:10;;;;;;;12.25;2.40;;;;;;;;;;5053214;28;20024;-92
2024/02/29 11:30:35;;;;;;;17.95;3.03;;;;;;;;;;5052888;28;20067;-92
2024/02/29 11:33:09;;;;;;;14.07;2.72;;;;;;;;;;5053125;28;20556;-93
2024/02/29 11:35:35;;;;;;;13.85;2.03;;;;;;;;;;5034983;28;20025;-92
2024/02/29 11:38:01;;;;;;;11.60;1.75;;;;;;;;;;5035040;28;20018;-92
2024/02/29 11:40:26;;;;;;;12.75;2.60;;;;;;;;;;5053002;28;20482;-93
2024/02/29 11:42:56;;;;;;;19.73;2.78;;;;;;;;;;5052865;28;20036;-92
2024/02/29 11:45:22;;;;;;;16.10;2.05;;;;;;;;;;5052512;28;20431;-92
2024/02/29 11:47:47;;;;;;;10.88;2.00;;;;;;;;;;5052865;28;20760;-92
2024/02/29 11:50:13;;;;;;;18.13;3.22;;;;;;;;;;5052640;28;20430;-93
2024/02/29 11:52:38;;;;;;;15.35;2.28;;;;;;;;;;5034983;28;20028;-93
2024/02/29 11:55:03;;;;;;;10.45;1.83;;;;;;;;;;5052239;28;20017;-93
2024/02/29 11:57:29;;;;;;;16.50;2.45;;;;;;;;;;5052549;28;20048;-95
2024/02/29 11:59:54;;;;;;;3.83;1.65;;;;;;;;;;5052485;28;20017;-92
2024/02/29 12:02:19;;;;;;;15.18;2.40;;;;;;;;;;5034597;28;20017;-93
2024/02/29 12:04:44;;;;;;;11.23;2.47;;;;;;;;;;5052584;28;20030;-92
2024/02/29 12:07:10;;;;;;;12.15;2.28;;;;;;;;;;5034452;28;20270;-94
2024/02/29 12:09:36;;;;;;;10.63;1.95;;;;;;;;;;5052373;28;20017;-92
2024/02/29 12:12:01;;;;;;;10.50;1.80;;;;;;;;;;5052484;28;20497;-92
2024/02/29 12:14:27;;;;;;;11.77;2.00;;;;;;;;;;5052156;28;20009;-93
2024/02/29 12:16:52;;;;;;;11.30;2.60;;;;;;;;;;5056784;28;20360;-93
2024/02/29 12:19:17;;;;;;;12.38;2.40;;;;;;;;;;5034945;28;20020;-92
2024/02/29 12:21:43;;;;;;;20.73;1.90;;;;;;;;;;5052294;28;20029;-93
2024/02/29 12:24:10;;;;;;;21.48;2.45;;;;;;;;;;5052031;28;20017;-93
2024/02/29 12:26:35;;;;;;;18.65;2.50;;;;;;;;;;5051958;28;20028;-93
2024/02/29 12:29:01;;;;;;;15.90;3.60;;;;;;;;;;5034437;28;20123;-93
2024/02/29 12:31:26;;;;;;;16.00;2.88;;;;;;;;;;5051888;28;20036;-93
2024/02/29 12:33:52;;;;;;;10.90;2.20;;;;;;;;;;5034185;28;20478;-93
2024/02/29 12:36:18;;;;;;;13.23;2.50;;;;;;;;;;5051877;28;20045;-93
2024/02/29 12:38:44;;;;;;;9.45;1.70;;;;;;;;;;5034530;28;20425;-93
2024/02/29 12:41:11;;;;;;;8.18;2.08;;;;;;;;;;5034125;28;20025;-93
2024/02/29 12:43:39;;;;;;;13.35;2.75;;;;;;;;;;5034048;28;20062;-94
2024/02/29 12:46:05;;;;;;;13.13;3.65;;;;;;;;;;5052004;28;20516;-92
2024/02/29 12:48:31;;;;;;;13.20;2.13;;;;;;;;;;5033932;28;20082;-92
2024/02/29 12:50:56;;;;;;;13.95;2.28;;;;;;;;;;5034168;28;20054;-93
2024/02/29 12:53:21;;;;;;;14.45;2.50;;;;;;;;;;5034162;28;20020;-92
2024/02/29 12:55:47;;;;;;;15.25;3.05;;;;;;;;;;5034129;28;20021;-93
2024/02/29 12:58:12;;;;;;;16.23;2.60;;;;;;;;;;5034248;28;20017;-93
2024/02/29 13:00:38;;;;;;;18.45;1.98;;;;;;;;;;5051830;28;20029;-92
2024/02/29 13:03:03;;;;;;;13.43;1.83;;;;;;;;;;5033898;28;20032;-92
2024/02/29 13:05:30;;;;;;;16.67;2.78;;;;;;;;;;5033930;28;20063;-94
2024/02/29 13:07:55;;;;;;;13.70;2.10;;;;;;;;;;5033905;28;20025;-92
2024/02/29 13:10:22;;;;;;;16.00;3.03;;;;;;;;;;5033877;28;20025;-93
2024/02/29 13:12:47;;;;;;;14.63;2.20;;;;;;;;;;5037289;28;20017;-96
2024/02/29 13:15:12;;;;;;;11.05;2.30;;;;;;;;;;5033726;28;20025;-93
2024/02/29 13:17:38;;;;;;;14.60;2.83;;;;;;;;;;5034149;28;20021;-92
2024/02/29 13:20:05;;;;;;;14.23;2.58;;;;;;;;;;5033941;28;20017;-93
2024/02/29 13:22:30;;;;;;;9.30;2.40;;;;;;;;;;5034026;28;20078;-93
2024/02/29 13:24:55;;;;;;;16.17;2.40;;;;;;;;;;5051468;28;20104;-93
2024/02/29 13:27:20;;;;;;;18.05;2.95;;;;;;;;;;5034028;28;20029;-93
2024/02/29 13:29:46;;;;;;;20.40;3.33;;;;;;;;;;5033981;28;20100;-92
2024/02/29 13:32:11;;;;;;;16.70;3.10;;;;;;;;;;5033975;28;20345;-93
2024/02/29 13:34:36;;;;;;;19.17;3.00;;;;;;;;;;5051646;28;20501;-94
2024/02/29 13:37:01;;;;;;;14.10;2.53;;;;;;;;;;5033800;28;20767;-93
2024/02/29 13:39:26;;;;;;;16.58;2.42;;;;;;;;;;5051624;28;20110;-93
2024/02/29 13:41:52;;;;;;;16.73;3.28;;;;;;;;;;5051720;28;20017;-93
2024/02/29 13:44:17;;;;;;;19.97;3.17;;;;;;;;;;5033685;28;20021;-93
2024/02/29 13:46:43;;;;;;;16.88;3.00;;;;;;;;;;5051415;28;20289;-93
2024/02/29 13:49:09;;;;;;;17.17;3.08;;;;;;;;;;5052953;28;20032;-93
2024/02/29 13:51:34;;;;;;;12.68;1.85;;;;;;;;;;5037156;28;20029;-93
2024/02/29 13:53:59;;;;;;;15.13;2.55;;;;;;;;;;5037097;28;20063;-91
2024/02/29 13:56:27;;;;;;;17.83;2.28;;;;;;;;;;5036721;28;20052;-93
2024/02/29 13:58:52;;;;;;;17.00;3.15;;;;;;;;;;5037135;28;20518;-94
2024/02/29 14:01:18;;;;;;;24.52;3.35;;;;;;;;;;5054842;28;20096;-93
2024/02/29 14:03:44;;;;;;;14.70;2.92;;;;;;;;;;5036991;28;20899;-93
2024/02/29 14:06:09;;;;;;;14.35;3.22;;;;;;;;;;5054766;28;20028;-93
2024/02/29 14:08:34;;;;;;;10.50;1.77;;;;;;;;;;5036681;28;20078;-93
2024/02/29 14:11:00;;;;;;;16.13;2.80;;;;;;;;;;5036868;28;20017;-93
2024/02/29 14:13:25;;;;;;;18.95;2.55;;;;;;;;;;5054770;28;20051;-94
2024/02/29 14:15:51;;;;;;;15.57;3.35;;;;;;;;;;5036701;28;20028;-93
2024/02/29 14:18:16;;;;;;;23.20;4.25;;;;;;;;;;5037045;28;20021;-93
2024/02/29 14:20:41;;;;;;;12.13;2.17;;;;;;;;;;5036973;28;20078;-93
2024/02/29 14:23:06;;;;;;;22.15;3.78;;;;;;;;;;5054429;28;20375;-93
2024/02/29 14:25:32;;;;;;;22.38;4.07;;;;;;;;;;5036357;28;20029;-93